KPIE/PIE METAR and TAF weather

Enter ICAO airport designator
Station Type Date Time Source
KPIE METAR 2019/08/21 02:53 UTC NOAA

KPIE 210253Z AUTO 07003KT 10SM CLR 27/24 A3010 RMK AO2 SLP191 T02670239 51008 $


Station Type Date Time Source
KPIE Decoded METAR 2019/08/21 02:53 UTC NOAA

Station name not available
Aug 20, 2019 - 10:53 PM EDT / 2019.08.21 0253 UTC
Wind: from the ENE (070 degrees) at 3 MPH (3 KT):0
Visibility: 10 mile(s):0
Sky conditions: clear
Temperature: 80.1 F (26.7 C)
Dew Point: 75.0 F (23.9 C)
Relative Humidity: 84%
Pressure (altimeter): 30.1 in. Hg (1019 hPa)
Pressure tendency: 0.02 inches (0.8 hPa) higher than three hours ago
ob: KPIE 210253Z AUTO 07003KT 10SM CLR 27/24 A3010 RMK AO2 SLP191 T02670239 51008
cycle: 3

Station Type Date Time Source
KPIE TAF 2019/08/20 18:22 UTC NOAA

TAF KPIE 201720Z 2018/2118 11008KT P6SM SCT035 BKN250
FM201900 06006KT P6SM VCTS SCT040CB BKN250
TEMPO 2019/2023 VRB15G25KT 3SM TSRA BKN030CB OVC100
FM202300 VRB05KT P6SM VCTS SCT040CB BKN100
FM210200 09005KT P6SM FEW040 SCT100 BKN250
FM210600 VRB03KT P6SM FEW020 SCT250
FM211400 12007KT P6SM SCT025 SCT250

Example: see airport list